createdAt,value
2018-06-15T00:00:23.618Z,96981.20
2018-06-15T00:02:58.115Z,96980.38
2018-06-15T00:05:27.290Z,96976.83
2018-06-15T00:07:56.786Z,96981.96
2018-06-15T00:10:26.306Z,96977.91
2018-06-15T00:12:55.867Z,96984.44
2018-06-15T00:15:25.071Z,96986.38
2018-06-15T00:17:54.440Z,96985.02
2018-06-15T00:20:23.819Z,96986.02
2018-06-15T00:22:53.566Z,96983.90
2018-06-15T00:25:22.818Z,96987.42
2018-06-15T00:27:52.282Z,96988.17
2018-06-15T00:30:22.374Z,96986.56
2018-06-15T00:32:51.562Z,96983.09
2018-06-15T00:35:20.772Z,96980.56
2018-06-15T00:37:50.166Z,96981.96
2018-06-15T00:40:19.310Z,96979.03
2018-06-15T00:42:48.516Z,96979.22
2018-06-15T00:45:17.682Z,96977.33
2018-06-15T00:47:46.866Z,96971.10
2018-06-15T00:50:16.064Z,96969.03
2018-06-15T00:52:45.227Z,96966.61
2018-06-15T00:55:14.413Z,96968.31
2018-06-15T00:57:47.675Z,96963.98
2018-06-15T01:00:17.583Z,96964.30
2018-06-15T01:02:47.088Z,96972.36
2018-06-15T01:05:16.266Z,96971.01
2018-06-15T01:07:45.687Z,96967.20
2018-06-15T01:10:14.908Z,96970.75
2018-06-15T01:12:44.145Z,96965.80
2018-06-15T01:15:13.265Z,96960.20
2018-06-15T01:17:42.451Z,96970.44
2018-06-15T01:20:11.926Z,96966.38
2018-06-15T01:22:41.083Z,96968.50
2018-06-15T01:25:10.271Z,96960.75
2018-06-15T01:27:39.468Z,96962.45
2018-06-15T01:30:08.634Z,96963.22
2018-06-15T01:32:37.814Z,96954.86
2018-06-15T01:35:07.102Z,96964.58
2018-06-15T01:37:36.264Z,96952.16
2018-06-15T01:40:05.776Z,96959.21
2018-06-15T01:42:34.911Z,96961.91
2018-06-15T01:45:04.447Z,96956.52
2018-06-15T01:47:33.878Z,96952.73
2018-06-15T01:50:03.070Z,96957.82
2018-06-15T01:52:32.260Z,96953.27
2018-06-15T01:55:01.474Z,96951.61
2018-06-15T01:57:31.334Z,96952.91
2018-06-15T02:00:00.506Z,96957.28
2018-06-15T02:02:29.674Z,96955.66
2018-06-15T02:04:58.931Z,96954.84
2018-06-15T02:07:28.087Z,96953.72
2018-06-15T02:09:57.607Z,96945.66
2018-06-15T02:12:27.091Z,96943.86
2018-06-15T02:14:56.652Z,96946.75
2018-06-15T02:17:26.003Z,96942.73
2018-06-15T02:19:55.214Z,96937.06
2018-06-15T02:22:24.480Z,96944.58
2018-06-15T02:24:53.670Z,96941.88
2018-06-15T02:27:22.930Z,96944.54
2018-06-15T02:29:52.122Z,96942.65
2018-06-15T02:32:21.383Z,96947.73
2018-06-15T02:34:51.538Z,96941.06
2018-06-15T02:37:20.995Z,96944.86
2018-06-15T02:39:50.518Z,96944.27
2018-06-15T02:42:19.732Z,96937.78
2018-06-15T02:44:48.952Z,96940.56
2018-06-15T02:47:18.263Z,96943.77
2018-06-15T02:49:47.482Z,96942.69
2018-06-15T02:52:16.841Z,96944.03
2018-06-15T02:54:46.075Z,96940.27
2018-06-15T02:57:15.271Z,96939.72
2018-06-15T02:59:44.494Z,96940.84
2018-06-15T03:02:14.369Z,96942.70
2018-06-15T03:04:43.557Z,96945.98
2018-06-15T03:07:12.738Z,96940.58
2018-06-15T03:09:42.099Z,96943.86
2018-06-15T03:12:11.288Z,96940.34
2018-06-15T03:14:40.518Z,96946.48
2018-06-15T03:17:10.297Z,96943.81
2018-06-15T03:19:39.479Z,96946.73
2018-06-15T03:22:08.990Z,96947.09
2018-06-15T03:24:38.573Z,96943.31
2018-06-15T03:27:07.793Z,96945.20
2018-06-15T03:29:37.003Z,96938.95
2018-06-15T03:32:06.554Z,96945.44
2018-06-15T03:34:35.778Z,96943.05
2018-06-15T03:37:04.951Z,96948.67
2018-06-15T03:39:34.143Z,96949.98
2018-06-15T03:42:03.323Z,96950.79
2018-06-15T03:44:32.981Z,96945.12
2018-06-15T03:47:02.203Z,96949.63
2018-06-15T03:49:31.433Z,96950.98
2018-06-15T03:52:00.632Z,96953.64
2018-06-15T03:54:29.866Z,96950.16
2018-06-15T03:56:59.056Z,96951.70
2018-06-15T03:59:28.280Z,96950.63
2018-06-15T04:01:57.439Z,96952.78
2018-06-15T04:04:26.666Z,96960.02
2018-06-15T04:06:56.234Z,96958.98
2018-06-15T04:09:26.355Z,96967.05
2018-06-15T04:11:56.176Z,96962.95
2018-06-15T04:14:26.286Z,96965.98
2018-06-15T04:16:55.651Z,96970.80
2018-06-15T04:19:24.978Z,96968.36
2018-06-15T04:21:54.163Z,96966.87
2018-06-15T04:24:23.346Z,96966.87
2018-06-15T04:26:52.558Z,96970.08
2018-06-15T04:29:22.066Z,96969.53
2018-06-15T04:31:51.383Z,96970.61
2018-06-15T04:34:20.578Z,96969.80
2018-06-15T04:36:49.782Z,96974.89
2018-06-15T04:39:18.980Z,96972.20
2018-06-15T04:41:49.739Z,96971.56
2018-06-15T04:44:18.922Z,96977.27
2018-06-15T04:46:48.131Z,96976.02
2018-06-15T04:49:17.307Z,96969.85
2018-06-15T04:51:46.508Z,96977.19
2018-06-15T04:54:15.686Z,96980.30
2018-06-15T04:56:44.922Z,96979.30
2018-06-15T04:59:14.095Z,96976.29
2018-06-15T05:01:43.544Z,96975.61
2018-06-15T05:04:12.739Z,96981.32
2018-06-15T05:06:41.944Z,96982.63
2018-06-15T05:09:11.589Z,96988.27
2018-06-15T05:11:41.404Z,96986.64
2018-06-15T05:14:10.623Z,96989.42
2018-06-15T05:16:39.814Z,96985.88
2018-06-15T05:19:09.024Z,96994.29
2018-06-15T05:21:38.267Z,96993.09
2018-06-15T05:24:07.664Z,96997.18
2018-06-15T05:26:36.863Z,96999.22
2018-06-15T05:29:06.134Z,96998.84
2018-06-15T05:31:35.631Z,97008.30
2018-06-15T05:34:05.123Z,97001.55
2018-06-15T05:36:34.362Z,97005.09
2018-06-15T05:39:04.411Z,97003.70
2018-06-15T05:41:33.663Z,97005.87
2018-06-15T05:44:03.155Z,97004.36
2018-06-15T05:46:33.328Z,97008.88
2018-06-15T05:49:02.744Z,97007.22
2018-06-15T05:51:31.971Z,97004.13
2018-06-15T05:54:01.175Z,97011.04
2018-06-15T05:56:30.427Z,97009.69
2018-06-15T05:58:59.675Z,97005.55
2018-06-15T06:01:28.892Z,97000.93
2018-06-15T06:03:58.293Z,97005.25
2018-06-15T06:06:27.463Z,97008.67
2018-06-15T06:08:57.404Z,97006.05
2018-06-15T06:11:26.594Z,97006.89
2018-06-15T06:13:55.781Z,97008.38
2018-06-15T06:16:24.999Z,97008.36
2018-06-15T06:18:54.244Z,97014.86
2018-06-15T06:21:23.474Z,97019.45
2018-06-15T06:23:53.394Z,97018.77
2018-06-15T06:26:22.838Z,97015.00
2018-06-15T06:28:52.365Z,97023.19
2018-06-15T06:31:21.907Z,97023.00
2018-06-15T06:33:51.275Z,97024.72
2018-06-15T06:36:20.762Z,97024.19
2018-06-15T06:38:49.942Z,97024.98
2018-06-15T06:41:19.655Z,97023.77
2018-06-15T06:43:48.909Z,97026.59
2018-06-15T06:46:18.735Z,97028.11
2018-06-15T06:48:47.923Z,97028.92
2018-06-15T06:51:17.248Z,97028.86
2018-06-15T06:53:46.451Z,97033.75
2018-06-15T06:56:15.792Z,97032.61
2018-06-15T06:58:45.334Z,97030.58
2018-06-15T07:01:14.955Z,97031.11
2018-06-15T07:03:44.151Z,97032.47
2018-06-15T07:06:13.407Z,97029.28
2018-06-15T07:08:43.126Z,97033.63
2018-06-15T07:11:12.339Z,97040.78
2018-06-15T07:13:41.514Z,97040.71
2018-06-15T07:16:10.727Z,97039.69
2018-06-15T07:18:40.523Z,97037.63
2018-06-15T07:21:10.271Z,97035.83
2018-06-15T07:23:39.509Z,97038.80
2018-06-15T07:26:08.659Z,97038.07
2018-06-15T07:28:37.836Z,97044.88
2018-06-15T07:31:07.066Z,97042.45
2018-06-15T07:33:36.556Z,97049.52
2018-06-15T07:36:05.819Z,97051.34
2018-06-15T07:38:35.209Z,97058.66
2018-06-15T07:41:04.680Z,97054.41
2018-06-15T07:43:33.851Z,97056.70
2018-06-15T07:46:03.068Z,97056.16
2018-06-15T07:48:32.301Z,97054.66
2018-06-15T07:51:01.791Z,97058.80
2018-06-15T07:53:31.315Z,97057.25
2018-06-15T07:56:00.523Z,97055.48
2018-06-15T07:58:30.226Z,97055.01
2018-06-15T08:00:59.919Z,97059.42
2018-06-15T08:03:29.323Z,97062.12
2018-06-15T08:05:58.533Z,97062.94
2018-06-15T08:08:28.980Z,97068.76
2018-06-15T08:10:58.201Z,97062.84
2018-06-15T08:13:27.379Z,97055.78
2018-06-15T08:15:56.947Z,97058.30
2018-06-15T08:18:26.126Z,97064.88
2018-06-15T08:20:55.839Z,97069.55
2018-06-15T08:23:25.283Z,97063.44
2018-06-15T08:25:54.463Z,97068.45
2018-06-15T08:28:24.280Z,97067.73
2018-06-15T08:30:53.452Z,97060.34
2018-06-15T08:33:22.658Z,97063.69
2018-06-15T08:35:52.158Z,97061.91
2018-06-15T08:38:21.423Z,97063.36
2018-06-15T08:40:50.635Z,97054.66
2018-06-15T08:43:20.167Z,97061.13
2018-06-15T08:45:49.348Z,97055.09
2018-06-15T08:48:18.627Z,97051.21
2018-06-15T08:50:48.272Z,97051.77
2018-06-15T08:53:17.491Z,97060.29
2018-06-15T08:55:46.676Z,97054.23
2018-06-15T08:58:15.889Z,97051.53
2018-06-15T09:00:45.069Z,97050.66
2018-06-15T09:03:14.308Z,97051.73
2018-06-15T09:08:27.082Z,97049.30
2018-06-15T09:10:56.262Z,97056.70
2018-06-15T09:13:25.495Z,97051.82
2018-06-15T09:15:54.747Z,97048.61
2018-06-15T09:18:23.975Z,97052.09
2018-06-15T09:20:53.178Z,97053.72
2018-06-15T09:23:22.896Z,97059.84
2018-06-15T09:25:53.327Z,97051.97
2018-06-15T09:28:22.738Z,97048.77
2018-06-15T09:30:52.739Z,97050.56
2018-06-15T09:33:22.612Z,97050.09
2018-06-15T09:35:51.815Z,97052.28
2018-06-15T09:38:21.321Z,97048.45
2018-06-15T09:40:50.514Z,97054.07
2018-06-15T09:43:19.738Z,97059.19
2018-06-15T09:45:50.670Z,97053.82
2018-06-15T09:48:19.959Z,97060.64
2018-06-15T09:50:49.135Z,97062.53
2018-06-15T09:53:18.382Z,97059.45
2018-06-15T09:55:48.293Z,97065.42
2018-06-15T09:58:17.495Z,97063.02
2018-06-15T10:00:51.156Z,97065.03
2018-06-15T10:03:20.536Z,97069.21
2018-06-15T10:05:49.949Z,97064.69
2018-06-15T10:08:19.154Z,97066.34
2018-06-15T10:10:48.348Z,97070.06
2018-06-15T10:13:17.978Z,97068.36
2018-06-15T10:15:47.551Z,97070.34
2018-06-15T10:18:16.770Z,97067.00
2018-06-15T10:20:45.946Z,97076.02
2018-06-15T10:23:15.141Z,97072.68
2018-06-15T10:25:44.318Z,97078.81
2018-06-15T10:28:13.522Z,97075.28
2018-06-15T10:30:42.976Z,97082.39
2018-06-15T10:33:12.182Z,97078.71
2018-06-15T10:35:41.376Z,97084.01
2018-06-15T10:38:11.079Z,97078.80
2018-06-15T10:40:41.273Z,97082.87
2018-06-15T10:43:10.502Z,97084.28
2018-06-15T10:45:40.210Z,97080.59
2018-06-15T10:48:09.594Z,97086.95
2018-06-15T10:50:39.027Z,97087.57
2018-06-15T10:53:08.252Z,97084.41
2018-06-15T10:55:37.445Z,97084.77
2018-06-15T10:58:06.726Z,97084.30
2018-06-15T11:00:36.026Z,97080.27
2018-06-15T11:03:05.292Z,97074.08
2018-06-15T11:05:34.559Z,97078.84
2018-06-15T11:08:03.812Z,97073.12
2018-06-15T11:10:33.007Z,97075.87
2018-06-15T11:13:02.223Z,97076.84
2018-06-15T11:15:31.527Z,97074.11
2018-06-15T11:18:00.719Z,97073.25
2018-06-15T11:20:29.900Z,97077.50
2018-06-15T11:22:59.107Z,97063.45
2018-06-15T11:25:29.284Z,97072.02
2018-06-15T11:27:58.483Z,97068.56
2018-06-15T11:30:27.667Z,97068.70
2018-06-15T11:32:57.075Z,97065.97
2018-06-15T11:35:26.633Z,97066.39
2018-06-15T11:37:56.055Z,97067.34
2018-06-15T11:40:25.463Z,97062.44
2018-06-15T11:42:54.670Z,97066.98
2018-06-15T11:45:24.479Z,97062.08
2018-06-15T11:47:54.539Z,97064.04
2018-06-15T11:50:24.371Z,97060.79
2018-06-15T11:52:54.496Z,97056.43
2018-06-15T11:55:23.662Z,97056.56
2018-06-15T11:57:53.735Z,97070.66
2018-06-15T12:00:23.456Z,97061.70
2018-06-15T12:02:52.691Z,97053.40
2018-06-15T12:05:22.206Z,97050.97
2018-06-15T12:07:51.434Z,97047.35
2018-06-15T12:10:20.679Z,97041.98
2018-06-15T12:12:49.883Z,97042.56
2018-06-15T12:15:19.553Z,97045.59
2018-06-15T12:17:48.719Z,97042.56
2018-06-15T12:20:17.943Z,97045.82
2018-06-15T12:22:47.448Z,97041.77
2018-06-15T12:25:16.688Z,97033.06
2018-06-15T12:27:45.880Z,97025.78
2018-06-15T12:30:15.163Z,97030.52
2018-06-15T12:32:44.390Z,97029.00
2018-06-15T12:35:13.563Z,97027.73
2018-06-15T12:37:42.760Z,97031.06
2018-06-15T12:40:12.201Z,97033.39
2018-06-15T12:42:41.394Z,97044.44
2018-06-15T12:45:11.091Z,97038.29
2018-06-15T12:47:40.281Z,97032.39
2018-06-15T12:50:09.514Z,97039.39
2018-06-15T12:52:38.827Z,97040.96
2018-06-15T12:55:08.344Z,97038.78
2018-06-15T12:57:37.737Z,97038.11
2018-06-15T13:00:07.212Z,97034.46
2018-06-15T13:02:36.404Z,97029.11
2018-06-15T13:05:06.166Z,97031.78
2018-06-15T13:07:35.350Z,97027.09
2018-06-15T13:10:04.992Z,97028.97
2018-06-15T13:12:34.203Z,97019.86
2018-06-15T13:15:03.462Z,97017.37
2018-06-15T13:17:32.868Z,97018.63
2018-06-15T13:20:02.097Z,97014.44
2018-06-15T13:22:31.390Z,97021.58
2018-06-15T13:25:00.814Z,97021.09
2018-06-15T13:27:30.015Z,97016.34
2018-06-15T13:29:59.206Z,97019.42
2018-06-15T13:32:28.394Z,97022.06
2018-06-15T13:34:57.621Z,97023.21
2018-06-15T13:37:26.808Z,97017.08
2018-06-15T13:39:56.835Z,97017.28
2018-06-15T13:42:26.262Z,97017.72
2018-06-15T13:44:55.782Z,97008.66
2018-06-15T13:47:24.967Z,97008.06
2018-06-15T13:49:54.190Z,97009.61
2018-06-15T13:52:23.363Z,97006.80
2018-06-15T13:54:53.033Z,97003.74
2018-06-15T13:57:22.282Z,96998.95
2018-06-15T13:59:51.491Z,96995.68
2018-06-15T14:02:20.658Z,97002.05
2018-06-15T14:04:49.854Z,96995.74
2018-06-15T14:07:19.046Z,96996.24
2018-06-15T14:09:48.242Z,96989.30
2018-06-15T14:12:17.716Z,96994.04
2018-06-15T14:14:46.935Z,96990.84
2018-06-15T14:17:16.735Z,96986.94
2018-06-15T14:19:45.941Z,96996.41
2018-06-15T14:22:15.148Z,96985.80
2018-06-15T14:24:44.335Z,96993.41
2018-06-15T14:27:13.738Z,96994.31
2018-06-15T14:29:43.355Z,96988.48
2018-06-15T14:32:12.531Z,96988.34
2018-06-15T14:34:41.728Z,96977.50
2018-06-15T14:37:11.020Z,96982.75
2018-06-15T14:39:40.354Z,96981.55
2018-06-15T14:42:09.641Z,96984.41
2018-06-15T14:44:39.259Z,96979.58
2018-06-15T14:47:08.976Z,96968.52
2018-06-15T14:49:38.190Z,96978.52
2018-06-15T14:52:07.354Z,96979.83
2018-06-15T14:54:36.666Z,96980.02
2018-06-15T14:57:05.839Z,96972.48
2018-06-15T14:59:35.610Z,96979.64
2018-06-15T15:02:05.207Z,96974.77
2018-06-15T15:04:34.428Z,96974.87
2018-06-15T15:07:04.187Z,96978.67
2018-06-15T15:09:44.544Z,96974.83
2018-06-15T15:12:13.721Z,96966.69
2018-06-15T15:14:43.063Z,96962.75
2018-06-15T15:17:12.654Z,96968.36
2018-06-15T15:19:43.715Z,96964.90
2018-06-15T15:22:12.906Z,96976.91
2018-06-15T15:24:42.143Z,96971.54
2018-06-15T15:27:11.327Z,96978.14
2018-06-15T15:29:40.612Z,96978.63
2018-06-15T15:32:10.115Z,96973.78
2018-06-15T15:34:40.361Z,96967.22
2018-06-15T15:37:09.571Z,96969.66
2018-06-15T15:39:38.772Z,96973.53
2018-06-15T15:42:07.962Z,96975.33
2018-06-15T15:44:37.179Z,96971.73
2018-06-15T15:47:06.575Z,96964.47
2018-06-15T15:49:36.695Z,96963.05
2018-06-15T15:52:05.882Z,96964.23
2018-06-15T15:54:35.282Z,96960.51
2018-06-15T15:57:04.861Z,96963.29
2018-06-15T15:59:34.116Z,96960.78
2018-06-15T16:02:03.287Z,96956.15
2018-06-15T16:04:33.067Z,96957.46
2018-06-15T16:07:02.270Z,96953.83
2018-06-15T16:09:31.458Z,96955.13
2018-06-15T16:12:01.573Z,96958.06
2018-06-15T16:14:30.742Z,96962.05
2018-06-15T16:17:00.032Z,96955.57
2018-06-15T16:19:29.188Z,96950.14
2018-06-15T16:21:58.774Z,96954.11
2018-06-15T16:24:28.155Z,96943.13
2018-06-15T16:26:57.682Z,96950.50
2018-06-15T16:29:27.199Z,96948.82
2018-06-15T16:31:56.439Z,96945.17
2018-06-15T16:34:26.372Z,96936.53
2018-06-15T16:36:56.489Z,96946.34
2018-06-15T16:39:25.664Z,96945.17
2018-06-15T16:41:54.962Z,96944.31
2018-06-15T16:44:24.446Z,96953.34
2018-06-15T16:46:55.038Z,96949.52
2018-06-15T16:49:24.358Z,96949.03
2018-06-15T16:51:53.679Z,96945.95
2018-06-15T16:54:23.402Z,96943.93
2018-06-15T16:56:52.879Z,96948.84
2018-06-15T16:59:22.371Z,96945.06
2018-06-15T17:01:52.035Z,96943.36
2018-06-15T17:04:21.303Z,96946.70
2018-06-15T17:06:51.110Z,96938.62
2018-06-15T17:09:20.683Z,96942.31
2018-06-15T17:11:49.918Z,96941.75
2018-06-15T17:14:19.111Z,96943.22
2018-06-15T17:16:48.910Z,96937.13
2018-06-15T17:19:18.255Z,96944.00
2018-06-15T17:21:47.747Z,96943.28
2018-06-15T17:24:16.936Z,96944.78
2018-06-15T17:26:46.149Z,96944.58
2018-06-15T17:29:15.366Z,96943.21
2018-06-15T17:31:44.563Z,96945.28
2018-06-15T17:34:14.622Z,96946.09
2018-06-15T17:36:45.326Z,96949.39
2018-06-15T17:39:14.761Z,96956.80
2018-06-15T17:41:44.831Z,96944.68
2018-06-15T17:44:14.029Z,96949.36
2018-06-15T17:46:43.253Z,96954.70
2018-06-15T17:49:12.449Z,96951.39
2018-06-15T17:51:41.666Z,96954.62
2018-06-15T17:54:10.853Z,96946.27
2018-06-15T17:56:40.211Z,96945.81
2018-06-15T17:59:09.779Z,96949.17
2018-06-15T18:01:38.974Z,96949.80
2018-06-15T18:04:08.166Z,96954.80
2018-06-15T18:06:37.387Z,96960.55
2018-06-15T18:09:08.618Z,96960.23
2018-06-15T18:11:38.154Z,96960.86
2018-06-15T18:14:07.779Z,96961.55
2018-06-15T18:16:37.390Z,96958.02
2018-06-15T18:19:17.446Z,96965.33
2018-06-15T18:21:47.211Z,96962.28
2018-06-15T18:24:16.402Z,96970.09
2018-06-15T18:26:45.958Z,96964.39
2018-06-15T18:29:15.763Z,96967.83
2018-06-15T18:31:44.978Z,96964.47
2018-06-15T18:34:14.571Z,96967.02
2018-06-15T18:36:44.219Z,96969.86
2018-06-15T18:39:14.587Z,96966.14
2018-06-15T18:41:44.307Z,96972.42
2018-06-15T18:44:13.500Z,96975.75
2018-06-15T18:46:42.708Z,96975.80
2018-06-15T18:49:11.899Z,96971.41
2018-06-15T18:51:41.730Z,96970.84
2018-06-15T18:54:10.925Z,96970.34
2018-06-15T18:56:40.143Z,96972.09
2018-06-15T18:59:09.310Z,96972.83
2018-06-15T19:01:38.577Z,96973.72
2018-06-15T19:04:07.764Z,96973.98
2018-06-15T19:06:36.956Z,96973.09
2018-06-15T19:09:08.442Z,96970.17
2018-06-15T19:11:37.650Z,96970.60
2018-06-15T19:14:07.774Z,96977.45
2018-06-15T19:16:37.250Z,96969.13
2018-06-15T19:19:06.659Z,96971.41
2018-06-15T19:21:36.417Z,96969.66
2018-06-15T19:24:05.624Z,96972.89
2018-06-15T19:26:35.102Z,96973.98
2018-06-15T19:29:04.495Z,96974.75
2018-06-15T19:31:33.682Z,96975.08
2018-06-15T19:34:02.872Z,96974.56
2018-06-15T19:36:32.115Z,96979.81
2018-06-15T19:39:01.404Z,96976.73
2018-06-15T19:41:30.735Z,96974.61
2018-06-15T19:44:00.333Z,96974.03
2018-06-15T19:46:29.631Z,96980.67
2018-06-15T19:48:58.940Z,96975.76
2018-06-15T19:51:28.182Z,96978.22
2018-06-15T19:53:57.362Z,96976.63
2018-06-15T19:56:26.639Z,96975.48
2018-06-15T19:58:55.937Z,96978.84
2018-06-15T20:01:25.404Z,96982.64
2018-06-15T20:03:54.642Z,96978.14
2018-06-15T20:06:23.836Z,96977.63
2018-06-15T20:08:53.032Z,96975.56
2018-06-15T20:11:23.126Z,96975.59
2018-06-15T20:13:52.874Z,96975.14
2018-06-15T20:16:22.079Z,96975.66
2018-06-15T20:18:51.264Z,96977.71
2018-06-15T20:21:20.449Z,96983.25
2018-06-15T20:23:50.011Z,96977.27
2018-06-15T20:26:19.892Z,96983.33
2018-06-15T20:28:49.389Z,96978.28
2018-06-15T20:31:18.556Z,96987.09
2018-06-15T20:33:48.014Z,96987.93
2018-06-15T20:36:17.596Z,96990.70
2018-06-15T20:38:47.030Z,96988.94
2018-06-15T20:41:16.211Z,96982.45
2018-06-15T20:43:45.412Z,96984.17
2018-06-15T20:46:14.589Z,96984.56
2018-06-15T20:48:43.807Z,96984.87
2018-06-15T20:51:12.985Z,96977.60
2018-06-15T20:53:42.171Z,96974.70
2018-06-15T20:56:11.342Z,96974.42
2018-06-15T20:58:40.565Z,96976.63
2018-06-15T21:01:09.747Z,96973.42
2018-06-15T21:03:38.955Z,96974.56
2018-06-15T21:06:08.514Z,96972.49
2018-06-15T21:08:38.007Z,96976.41
2018-06-15T21:11:07.162Z,96978.52
2018-06-15T21:13:36.724Z,96976.77
2018-06-15T21:16:05.940Z,96977.52
2018-06-15T21:18:35.505Z,96973.24
2018-06-15T21:21:04.692Z,96978.72
2018-06-15T21:23:34.702Z,96977.17
2018-06-15T21:26:03.958Z,96977.50
2018-06-15T21:28:33.431Z,96973.56
2018-06-15T21:31:02.605Z,96983.42
2018-06-15T21:33:31.820Z,96971.36
2018-06-15T21:36:01.031Z,96974.86
2018-06-15T21:42:59.562Z,96974.43
2018-06-15T21:45:29.018Z,96972.36
2018-06-15T21:47:58.362Z,96974.04
2018-06-15T21:50:28.890Z,96976.23
2018-06-15T21:52:58.415Z,96966.60
2018-06-15T21:55:28.060Z,96963.41
2018-06-15T21:57:57.233Z,96966.96
2018-06-15T22:00:27.378Z,96970.52
2018-06-15T22:02:57.111Z,96967.86
2018-06-15T22:05:26.322Z,96967.94
2018-06-15T22:07:55.535Z,96961.19
2018-06-15T22:10:24.732Z,96969.86
2018-06-15T22:12:53.946Z,96969.59
2018-06-15T22:15:23.142Z,96965.85
2018-06-15T22:17:52.437Z,96969.63
2018-06-15T22:20:21.616Z,96969.39
2018-06-15T22:22:50.814Z,96969.94
2018-06-15T22:25:19.988Z,96962.17
2018-06-15T22:27:49.310Z,96961.59
2018-06-15T22:30:18.479Z,96963.48
2018-06-15T22:32:48.134Z,96963.02
2018-06-15T22:35:17.318Z,96966.58
2018-06-15T22:37:46.527Z,96964.42
2018-06-15T22:40:15.714Z,96970.11
2018-06-15T22:42:45.251Z,96968.52
2018-06-15T22:45:14.431Z,96971.48
2018-06-15T22:47:43.642Z,96975.86
2018-06-15T22:50:12.927Z,96975.06
2018-06-15T22:52:42.455Z,96972.91
2018-06-15T22:55:11.634Z,96974.01
2018-06-15T22:57:40.958Z,96976.70
2018-06-15T23:00:11.575Z,96975.36
2018-06-15T23:02:41.062Z,96974.03
2018-06-15T23:05:10.509Z,96970.52
2018-06-15T23:07:39.706Z,96975.40
2018-06-15T23:10:09.091Z,96967.08
2018-06-15T23:12:38.276Z,96974.36
2018-06-15T23:15:07.481Z,96974.66
2018-06-15T23:17:36.927Z,96969.25
2018-06-15T23:20:06.367Z,96972.23
2018-06-15T23:22:35.570Z,96971.15
2018-06-15T23:25:05.059Z,96970.87
2018-06-15T23:27:34.531Z,96974.62
2018-06-15T23:30:04.123Z,96973.81
2018-06-15T23:32:33.305Z,96970.31
2018-06-15T23:35:02.510Z,96970.31
2018-06-15T23:37:31.670Z,96972.75
2018-06-15T23:40:01.010Z,96981.12
2018-06-15T23:42:30.463Z,96981.09
2018-06-15T23:44:59.810Z,96982.47
2018-06-15T23:47:28.990Z,96978.42
2018-06-15T23:49:58.539Z,96985.17
2018-06-15T23:52:28.019Z,96985.17
2018-06-15T23:54:57.599Z,96977.07
2018-06-15T23:57:27.063Z,96978.41
2018-06-15T23:59:56.316Z,96985.66
